createdAt,value
2023-04-18T05:03:11.771Z,23.10
2023-04-18T05:04:13.039Z,23.12
2023-04-18T05:05:13.234Z,23.14
2023-04-18T05:06:11.730Z,23.12
2023-04-18T05:07:12.761Z,23.12
2023-04-18T05:08:12.787Z,23.14
2023-04-18T05:09:12.822Z,23.15
2023-04-18T05:10:11.869Z,23.12
2023-04-18T05:11:12.852Z,23.14
2023-04-18T05:12:11.858Z,23.17
2023-04-18T05:13:11.867Z,23.14
2023-04-18T05:14:13.357Z,23.14
2023-04-18T05:15:11.951Z,23.15
2023-04-18T05:16:11.994Z,23.15
2023-04-18T05:17:12.054Z,23.15
2023-04-18T05:18:13.105Z,23.15
2023-04-18T05:19:13.197Z,23.17
2023-04-18T05:20:12.233Z,23.18
2023-04-18T05:21:12.271Z,23.17
2023-04-18T05:22:12.312Z,23.15
2023-04-18T05:23:12.377Z,23.12
2023-04-18T05:24:12.564Z,23.18
2023-04-18T05:25:12.541Z,23.15
2023-04-18T05:26:13.520Z,23.15
2023-04-18T05:27:13.567Z,23.15
2023-04-18T05:28:12.611Z,23.10
2023-04-18T05:29:13.689Z,23.17
2023-04-18T05:30:13.701Z,23.14
2023-04-18T05:31:13.876Z,23.14
2023-04-18T05:32:13.763Z,23.12
2023-04-18T05:33:13.823Z,23.14
2023-04-18T05:34:14.038Z,23.12
2023-04-18T05:35:12.939Z,23.17
2023-04-18T05:36:12.948Z,23.15
2023-04-18T05:37:12.982Z,23.12
2023-04-18T05:38:14.054Z,23.17
2023-04-18T05:39:14.072Z,23.15
2023-04-18T05:40:13.141Z,23.15
2023-04-18T05:41:14.164Z,23.15
2023-04-18T05:42:14.179Z,23.15
2023-04-18T05:43:13.245Z,23.17
2023-04-18T05:44:14.278Z,23.19
2023-04-18T05:45:14.317Z,23.18
2023-04-18T05:46:13.362Z,23.18
2023-04-18T05:47:14.373Z,23.18
2023-04-18T05:48:13.424Z,23.18
2023-04-18T05:49:14.453Z,23.19
2023-04-18T05:50:14.491Z,23.21
2023-04-18T05:51:13.576Z,23.21
2023-04-18T05:52:14.573Z,23.22
2023-04-18T05:53:14.583Z,23.22
2023-04-18T05:54:13.971Z,23.23
2023-04-18T05:55:13.666Z,23.22
2023-04-18T05:56:14.715Z,23.22
2023-04-18T05:57:13.766Z,23.22
2023-04-18T05:58:13.801Z,23.22
2023-04-18T05:59:13.837Z,23.25
2023-04-18T06:00:13.896Z,23.23
2023-04-18T06:01:14.941Z,23.25
2023-04-18T06:02:15.067Z,23.25
2023-04-18T06:03:14.159Z,23.25
2023-04-18T06:04:15.332Z,23.22
2023-04-18T06:05:15.453Z,23.23
2023-04-18T06:06:15.406Z,22.59
2023-04-18T06:07:15.132Z,23.02
2023-04-18T06:08:14.188Z,23.11
2023-04-18T06:09:15.785Z,23.22
2023-04-18T06:10:14.329Z,23.23
2023-04-18T06:11:15.343Z,23.25
2023-04-18T06:12:14.954Z,23.28
2023-04-18T06:13:15.439Z,23.36
2023-04-18T06:14:15.800Z,23.41
2023-04-18T06:15:15.548Z,23.48
2023-04-18T06:16:14.634Z,23.50
2023-04-18T06:17:15.633Z,23.53
2023-04-18T06:18:15.708Z,23.57
2023-04-18T06:19:15.713Z,23.60
2023-04-18T06:20:15.791Z,23.66
2023-04-18T06:21:14.811Z,23.66
2023-04-18T06:22:14.914Z,23.63
2023-04-18T06:23:15.905Z,23.66
2023-04-18T06:24:16.325Z,23.70
2023-04-18T06:25:16.004Z,23.68
2023-04-18T06:26:16.017Z,23.73
2023-04-18T06:27:27.944Z,23.78
2023-04-18T06:28:16.061Z,23.78
2023-04-18T06:29:16.048Z,23.80
2023-04-18T06:30:16.066Z,23.83
2023-04-18T06:31:16.047Z,23.87
2023-04-18T06:32:16.000Z,23.84
2023-04-18T06:33:16.015Z,23.88
2023-04-18T06:34:16.302Z,23.85
2023-04-18T06:35:14.997Z,23.87
2023-04-18T06:36:16.003Z,23.87
2023-04-18T06:37:16.019Z,23.85
2023-04-18T06:38:15.159Z,23.84
2023-04-18T06:39:15.132Z,23.84
2023-04-18T06:40:15.209Z,23.83
2023-04-18T06:41:16.256Z,23.84
2023-04-18T06:42:15.314Z,23.83
2023-04-18T06:43:16.372Z,23.77
2023-04-18T06:44:16.457Z,23.77
2023-04-18T06:45:16.485Z,23.74
2023-04-18T06:46:16.558Z,23.64
2023-04-18T06:47:16.516Z,23.67
2023-04-18T06:48:16.561Z,23.63
2023-04-18T06:49:15.597Z,23.70
2023-04-18T06:50:16.665Z,23.77
2023-04-18T06:51:15.692Z,23.83
2023-04-18T06:52:16.722Z,23.84
2023-04-18T06:53:16.763Z,23.83
2023-04-18T06:54:16.842Z,23.84
2023-04-18T06:55:17.286Z,23.88
2023-04-18T06:56:16.881Z,23.84
2023-04-18T06:57:16.929Z,23.87
2023-04-18T06:58:15.942Z,23.85
2023-04-18T06:59:15.976Z,23.83
2023-04-18T07:00:17.091Z,23.81
2023-04-18T07:01:17.119Z,23.39
2023-04-18T07:02:17.154Z,23.36
2023-04-18T07:03:17.309Z,23.56
2023-04-18T07:04:17.419Z,23.68
2023-04-18T07:05:17.297Z,23.73
2023-04-18T07:06:16.300Z,23.74
2023-04-18T07:07:17.390Z,23.21
2023-04-18T07:08:17.366Z,23.59
2023-04-18T07:09:17.381Z,23.56
2023-04-18T07:10:17.455Z,23.74
2023-04-18T07:11:17.394Z,23.83
2023-04-18T07:12:17.480Z,23.89
2023-04-18T07:13:16.562Z,23.89
2023-04-18T07:14:17.641Z,23.94
2023-04-18T07:15:16.671Z,23.98
2023-04-18T07:16:17.837Z,24.00
2023-04-18T07:17:17.899Z,24.01
2023-04-18T07:18:30.166Z,23.97
2023-04-18T07:19:17.824Z,23.95
2023-04-18T07:20:17.821Z,24.00
2023-04-18T07:21:16.819Z,24.00
2023-04-18T07:22:17.796Z,24.05
2023-04-18T07:23:16.792Z,24.09
2023-04-18T07:24:16.949Z,24.09
2023-04-18T07:25:16.797Z,24.13
2023-04-18T07:26:17.810Z,24.15
2023-04-18T07:27:16.776Z,24.16
2023-04-18T07:28:17.789Z,24.20
2023-04-18T07:29:17.836Z,24.20
2023-04-18T07:30:17.758Z,24.23
2023-04-18T07:31:17.774Z,24.23
2023-04-18T07:32:16.742Z,24.20
2023-04-18T07:33:17.764Z,24.23
2023-04-18T07:34:17.732Z,24.25
2023-04-18T07:35:16.721Z,24.30
2023-04-18T07:36:17.794Z,24.30
2023-04-18T07:37:17.814Z,24.27
2023-04-18T07:38:16.755Z,24.29
2023-04-18T07:39:17.727Z,24.32
2023-04-18T07:40:16.785Z,24.32
2023-04-18T07:41:16.690Z,24.30
2023-04-18T07:42:17.027Z,24.36
2023-04-18T07:43:18.721Z,24.32
2023-04-18T07:44:16.741Z,24.36
2023-04-18T07:45:17.651Z,24.37
2023-04-18T07:46:16.710Z,24.40
2023-04-18T07:47:22.347Z,24.25
2023-04-18T07:48:17.696Z,24.26
2023-04-18T07:49:17.665Z,24.16
2023-04-18T07:50:17.644Z,24.22
2023-04-18T07:51:16.793Z,24.25
2023-04-18T07:52:17.617Z,24.25
2023-04-18T07:53:17.602Z,24.25
2023-04-18T07:54:17.602Z,24.25
2023-04-18T07:55:16.593Z,23.56
2023-04-18T07:56:17.612Z,23.85
2023-04-18T07:57:17.594Z,23.87
2023-04-18T07:58:17.873Z,23.98
2023-04-18T07:59:17.588Z,24.05
2023-04-18T08:00:16.643Z,24.08
2023-04-18T08:01:16.573Z,24.09
2023-04-18T08:02:17.703Z,24.12
2023-04-18T08:03:17.814Z,24.15
2023-04-18T08:04:16.741Z,24.16
2023-04-18T08:05:16.731Z,24.18
2023-04-18T08:06:16.617Z,24.16
2023-04-18T08:07:17.549Z,24.16
2023-04-18T08:08:16.676Z,24.20
2023-04-18T08:09:16.712Z,24.19
2023-04-18T08:10:17.512Z,24.22
2023-04-18T08:11:17.562Z,24.25
2023-04-18T08:12:16.474Z,24.20
2023-04-18T08:13:17.487Z,24.20
2023-04-18T08:14:16.596Z,24.25
2023-04-18T08:15:17.475Z,24.23
2023-04-18T08:16:17.516Z,24.13
2023-04-18T08:17:16.444Z,24.22
2023-04-18T08:18:17.428Z,24.27
2023-04-18T08:19:17.433Z,24.25
2023-04-18T08:20:16.423Z,24.26
2023-04-18T08:21:17.445Z,24.26
2023-04-18T08:22:16.414Z,24.30
2023-04-18T08:23:17.424Z,24.26
2023-04-18T08:24:17.416Z,24.32
2023-04-18T08:25:16.392Z,24.33
2023-04-18T08:26:16.384Z,24.36
2023-04-18T08:27:17.396Z,24.26
2023-04-18T08:28:16.357Z,24.29
2023-04-18T08:29:17.398Z,24.29
2023-04-18T08:30:17.553Z,24.26
2023-04-18T08:31:16.407Z,24.32
2023-04-18T08:32:16.329Z,24.33
2023-04-18T08:33:17.340Z,24.36
2023-04-18T08:34:17.357Z,24.36
2023-04-18T08:35:16.323Z,24.37
2023-04-18T08:36:16.319Z,24.37
2023-04-18T08:37:17.317Z,24.40
2023-04-18T08:38:17.392Z,24.39
2023-04-18T08:39:17.293Z,24.39
2023-04-18T08:40:17.319Z,24.40
2023-04-18T08:41:17.309Z,24.18
2023-04-18T08:42:17.293Z,24.11
2023-04-18T08:43:17.262Z,23.95
2023-04-18T08:44:17.256Z,23.98
2023-04-18T08:45:17.253Z,24.02
2023-04-18T08:46:17.485Z,24.02
2023-04-18T08:47:16.247Z,24.11
2023-04-18T08:48:16.306Z,24.07
2023-04-18T08:49:17.457Z,24.08
2023-04-18T08:50:17.331Z,24.11
2023-04-18T08:51:17.227Z,24.09
2023-04-18T08:52:17.205Z,24.12
2023-04-18T08:53:17.201Z,24.07
2023-04-18T08:54:17.202Z,24.09
2023-04-18T08:55:17.282Z,24.08
2023-04-18T08:56:16.182Z,24.08
2023-04-18T08:57:17.171Z,24.07
2023-04-18T08:58:16.809Z,24.05
2023-04-18T08:59:17.166Z,24.05
2023-04-18T09:00:16.163Z,24.04
2023-04-18T09:01:17.165Z,24.05
2023-04-18T09:02:17.221Z,24.01
2023-04-18T09:03:16.166Z,24.02
2023-04-18T09:04:16.192Z,24.05
2023-04-18T09:05:16.176Z,24.02
2023-04-18T09:06:16.181Z,24.02
2023-04-18T09:07:17.165Z,23.95
2023-04-18T09:08:16.169Z,23.98
2023-04-18T09:09:16.211Z,23.95
2023-04-18T09:10:17.245Z,23.94
2023-04-18T09:11:16.275Z,23.95
2023-04-18T09:12:17.303Z,23.92
2023-04-18T09:13:17.300Z,23.97
2023-04-18T09:14:16.348Z,23.92
2023-04-18T09:15:17.340Z,23.94
2023-04-18T09:16:17.392Z,23.91
2023-04-18T09:17:16.358Z,23.89
2023-04-18T09:18:17.398Z,23.91
2023-04-18T09:19:16.570Z,23.87
2023-04-18T09:20:17.471Z,23.88
2023-04-18T09:21:17.479Z,23.85
2023-04-18T09:22:16.486Z,23.85
2023-04-18T09:23:16.542Z,23.84
2023-04-18T09:24:16.596Z,23.80
2023-04-18T09:25:16.674Z,23.83
2023-04-18T09:26:17.729Z,23.83
2023-04-18T09:27:17.761Z,23.80
2023-04-18T09:28:17.783Z,23.76
2023-04-18T09:29:17.845Z,23.76
2023-04-18T09:30:16.870Z,23.74
2023-04-18T09:31:16.921Z,23.73
2023-04-18T09:32:16.930Z,23.71
2023-04-18T09:33:17.982Z,23.70
2023-04-18T09:34:18.239Z,23.68
2023-04-18T09:35:18.081Z,23.67
2023-04-18T09:36:18.096Z,23.67
2023-04-18T09:37:18.137Z,23.67
2023-04-18T09:38:18.178Z,23.64
2023-04-18T09:39:18.205Z,23.61
2023-04-18T09:40:18.232Z,23.61
2023-04-18T09:41:21.230Z,23.63
2023-04-18T09:42:18.245Z,23.60
2023-04-18T09:43:18.220Z,23.54
2023-04-18T09:44:18.522Z,23.54
2023-04-18T09:45:18.209Z,23.53
2023-04-18T09:46:18.328Z,23.52
2023-04-18T09:47:17.337Z,23.50
2023-04-18T09:48:18.195Z,23.50
2023-04-18T09:49:17.633Z,23.52
2023-04-18T09:50:18.353Z,23.48
2023-04-18T09:51:18.281Z,23.45
2023-04-18T09:52:17.350Z,23.46
2023-04-18T09:53:20.150Z,23.43
2023-04-18T09:54:17.151Z,23.43
2023-04-18T09:55:17.159Z,23.42
2023-04-18T09:56:17.135Z,23.42
2023-04-18T09:57:18.133Z,23.41
2023-04-18T09:58:17.131Z,23.36
2023-04-18T09:59:20.966Z,23.39
2023-04-18T10:00:18.114Z,23.39
2023-04-18T10:01:18.129Z,23.38
2023-04-18T10:02:17.251Z,23.36
2023-04-18T10:03:18.275Z,23.33
2023-04-18T10:04:18.239Z,23.35
2023-04-18T10:05:19.542Z,23.33
2023-04-18T10:06:17.149Z,23.32
2023-04-18T10:07:18.099Z,23.32
2023-04-18T10:08:17.065Z,23.25
2023-04-18T10:09:18.046Z,23.28
2023-04-18T10:10:18.029Z,23.32
2023-04-18T10:11:19.280Z,23.29
2023-04-18T10:12:17.049Z,23.32
2023-04-18T10:13:17.015Z,23.29
2023-04-18T10:14:18.263Z,23.28
2023-04-18T10:15:18.003Z,23.26
2023-04-18T10:16:18.033Z,23.28
2023-04-18T10:17:16.991Z,23.26
2023-04-18T10:18:17.009Z,23.23
2023-04-18T10:19:16.977Z,23.28
2023-04-18T10:20:16.970Z,23.22
2023-04-18T10:21:17.989Z,23.23
2023-04-18T10:22:16.999Z,23.22
2023-04-18T10:23:17.945Z,23.22
2023-04-18T10:24:17.940Z,23.22
2023-04-18T10:25:16.936Z,23.22
2023-04-18T10:26:17.937Z,23.23
2023-04-18T10:27:17.931Z,23.19
2023-04-18T10:28:17.920Z,23.19
2023-04-18T10:29:17.928Z,23.18
2023-04-18T10:30:17.919Z,23.15
2023-04-18T10:31:17.953Z,23.21
2023-04-18T10:32:16.977Z,23.21
2023-04-18T10:33:27.957Z,23.21
2023-04-18T10:34:18.027Z,23.18
2023-04-18T10:35:16.885Z,23.18
2023-04-18T10:36:17.875Z,23.19
2023-04-18T10:37:17.902Z,23.17
2023-04-18T10:38:17.884Z,23.17
2023-04-18T10:39:17.829Z,23.17
2023-04-18T10:40:16.829Z,23.15
2023-04-18T10:41:16.839Z,23.12
2023-04-18T10:42:17.850Z,23.17
2023-04-18T10:43:17.825Z,23.15
2023-04-18T10:44:17.863Z,23.17
2023-04-18T10:45:17.809Z,23.11
2023-04-18T10:46:30.920Z,23.12
2023-04-18T10:47:17.919Z,23.14
2023-04-18T10:48:17.836Z,23.15
2023-04-18T10:49:16.784Z,23.17
2023-04-18T10:50:17.756Z,23.02
2023-04-18T10:51:17.777Z,22.71
2023-04-18T10:52:17.870Z,22.86
2023-04-18T10:53:17.745Z,22.74
2023-04-18T10:54:16.836Z,22.76
2023-04-18T10:55:17.760Z,22.89
2023-04-18T10:56:17.737Z,22.95
2023-04-18T10:57:17.739Z,22.90
2023-04-18T10:58:17.719Z,23.04
2023-04-18T10:59:16.702Z,23.08
2023-04-18T11:00:17.729Z,23.17
2023-04-18T11:01:17.724Z,23.21
2023-04-18T11:02:17.775Z,23.22
2023-04-18T11:03:16.779Z,23.23
2023-04-18T11:04:17.990Z,23.30
2023-04-18T11:05:17.774Z,23.25
2023-04-18T11:06:16.666Z,23.32
2023-04-18T11:07:17.869Z,23.29
2023-04-18T11:08:16.666Z,23.35
2023-04-18T11:09:17.696Z,23.30
2023-04-18T11:10:16.718Z,23.19
2023-04-18T11:11:16.649Z,23.36
2023-04-18T11:12:17.611Z,23.33
2023-04-18T11:13:17.617Z,23.43
2023-04-18T11:14:16.772Z,23.41
2023-04-18T11:15:17.682Z,23.43
2023-04-18T11:16:17.671Z,23.42
2023-04-18T11:17:17.578Z,23.46
2023-04-18T11:18:17.596Z,23.48
2023-04-18T11:19:17.567Z,23.42
2023-04-18T11:20:16.586Z,23.50
2023-04-18T11:21:16.569Z,23.35
2023-04-18T11:22:16.572Z,23.48
2023-04-18T11:23:17.537Z,23.36
2023-04-18T11:24:17.532Z,23.52
2023-04-18T11:25:16.551Z,23.53
2023-04-18T11:26:17.576Z,23.49
2023-04-18T11:27:17.533Z,23.52
2023-04-18T11:28:17.519Z,23.52
2023-04-18T11:29:17.506Z,23.50
2023-04-18T11:30:16.519Z,23.52
2023-04-18T11:31:17.517Z,23.60
2023-04-18T11:32:17.624Z,23.60
2023-04-18T11:33:17.659Z,23.60
2023-04-18T11:34:17.640Z,23.61
2023-04-18T11:35:17.673Z,23.67
2023-04-18T11:36:16.691Z,23.53
2023-04-18T11:37:17.901Z,23.53
2023-04-18T11:38:17.728Z,23.29
2023-04-18T11:39:17.762Z,23.48
2023-04-18T11:40:16.806Z,23.46
2023-04-18T11:41:17.840Z,23.50
2023-04-18T11:42:17.896Z,23.52
2023-04-18T11:43:17.875Z,23.52
2023-04-18T11:44:17.885Z,23.49
2023-04-18T11:45:16.914Z,23.49
2023-04-18T11:46:17.013Z,23.49
2023-04-18T11:47:17.970Z,23.49
2023-04-18T11:48:17.018Z,23.45
2023-04-18T11:49:17.037Z,23.43
2023-04-18T11:50:17.126Z,23.45
2023-04-18T11:51:17.133Z,23.39
2023-04-18T11:52:17.173Z,23.36
2023-04-18T11:53:17.239Z,23.41
2023-04-18T11:54:18.319Z,23.41
2023-04-18T11:55:18.383Z,23.35
2023-04-18T11:56:17.420Z,23.33
2023-04-18T11:57:17.488Z,23.33
2023-04-18T11:58:17.556Z,23.33
2023-04-18T11:59:18.566Z,23.30
2023-04-18T12:00:17.566Z,23.19
2023-04-18T12:01:18.584Z,23.10
2023-04-18T12:02:18.689Z,23.14
2023-04-18T12:03:17.832Z,23.08
2023-04-18T12:04:19.159Z,22.98
2023-04-18T12:05:18.836Z,22.91
2023-04-18T12:06:18.593Z,23.15
2023-04-18T12:07:17.595Z,23.17
2023-04-18T12:08:18.602Z,23.22
2023-04-18T12:09:18.580Z,23.29
2023-04-18T12:10:17.589Z,23.29
2023-04-18T12:11:17.579Z,23.32
2023-04-18T12:12:17.579Z,23.38
2023-04-18T12:13:18.573Z,23.36
2023-04-18T12:14:18.579Z,23.38
2023-04-18T12:15:18.608Z,23.39
2023-04-18T12:16:17.674Z,23.41
2023-04-18T12:17:18.581Z,23.39
2023-04-18T12:18:18.547Z,23.43
2023-04-18T12:19:18.549Z,23.42
2023-04-18T12:20:18.570Z,23.45
2023-04-18T12:21:17.561Z,23.45
2023-04-18T12:22:17.547Z,23.43
2023-04-18T12:23:17.552Z,23.42
2023-04-18T12:24:17.549Z,23.43
2023-04-18T12:25:18.551Z,23.43
2023-04-18T12:26:18.551Z,23.45
2023-04-18T12:27:17.569Z,23.17
2023-04-18T12:28:18.603Z,23.41
2023-04-18T12:29:18.552Z,23.41
2023-04-18T12:30:18.567Z,23.43
2023-04-18T12:31:17.578Z,23.42
2023-04-18T12:32:17.554Z,23.46
2023-04-18T12:33:17.565Z,23.42
2023-04-18T12:34:18.582Z,23.46
2023-04-18T12:35:18.562Z,23.46
2023-04-18T12:36:18.575Z,23.48
2023-04-18T12:37:17.580Z,23.41
2023-04-18T12:38:17.602Z,23.46
2023-04-18T12:39:17.630Z,23.46
2023-04-18T12:40:18.630Z,23.45
2023-04-18T12:41:17.635Z,23.46
2023-04-18T12:42:18.653Z,23.48
2023-04-18T12:43:17.634Z,23.45
2023-04-18T12:44:17.694Z,23.49
2023-04-18T12:45:17.646Z,23.50
2023-04-18T12:46:18.722Z,23.48
2023-04-18T12:47:17.757Z,23.46
2023-04-18T12:48:17.638Z,23.48
2023-04-18T12:49:17.664Z,23.49
2023-04-18T12:50:18.669Z,23.43
2023-04-18T12:51:18.618Z,23.25
2023-04-18T12:52:18.625Z,23.36
2023-04-18T12:53:18.642Z,23.38
2023-04-18T12:54:17.619Z,23.32
2023-04-18T12:55:18.651Z,23.28
2023-04-18T12:56:18.687Z,23.25
2023-04-18T12:57:18.704Z,23.19
2023-04-18T12:58:18.893Z,23.11
2023-04-18T12:59:17.832Z,22.97
2023-04-18T13:00:18.891Z,22.95
2023-04-18T13:01:18.018Z,22.86
2023-04-18T13:02:19.165Z,22.83
2023-04-18T13:03:18.182Z,22.63
2023-04-18T13:05:18.190Z,22.76
2023-04-18T13:06:19.230Z,22.80
2023-04-18T13:07:18.288Z,22.83
2023-04-18T13:08:18.364Z,22.90
2023-04-18T13:09:19.373Z,22.93
2023-04-18T13:10:19.426Z,22.95
2023-04-18T13:11:19.458Z,22.98
2023-04-18T13:12:18.515Z,23.01
2023-04-18T13:13:19.548Z,22.90
2023-04-18T13:14:19.612Z,23.02
2023-04-18T13:15:18.616Z,23.07
2023-04-18T13:16:19.667Z,23.08
2023-04-18T13:17:19.742Z,23.14
2023-04-18T13:18:18.748Z,23.15
2023-04-18T13:19:18.744Z,23.15
2023-04-18T13:20:18.779Z,23.19
2023-04-18T13:21:19.795Z,23.19
2023-04-18T13:22:18.830Z,23.22
2023-04-18T13:23:19.874Z,23.21
2023-04-18T13:24:18.938Z,23.21
2023-04-18T13:25:18.926Z,23.23
2023-04-18T13:26:19.947Z,23.22
2023-04-18T13:27:18.994Z,23.23
2023-04-18T13:28:19.012Z,23.25
2023-04-18T13:29:20.024Z,23.26
2023-04-18T13:30:19.066Z,23.23
2023-04-18T13:31:20.127Z,23.22
2023-04-18T13:32:20.124Z,23.22
2023-04-18T13:33:19.124Z,23.23
2023-04-18T13:34:20.237Z,23.25
2023-04-18T13:35:20.179Z,23.26
2023-04-18T13:36:20.187Z,23.25
2023-04-18T13:37:19.224Z,23.28
2023-04-18T13:38:19.266Z,23.26
2023-04-18T13:39:20.272Z,23.25
2023-04-18T13:40:20.355Z,23.26
2023-04-18T13:41:20.437Z,23.18
2023-04-18T13:42:20.329Z,23.23
2023-04-18T13:43:19.347Z,23.07
2023-04-18T13:44:20.390Z,23.17
2023-04-18T13:45:20.482Z,23.26
2023-04-18T13:46:19.470Z,22.98
2023-04-18T13:47:20.497Z,23.14
2023-04-18T13:48:20.480Z,23.17
2023-04-18T13:49:19.510Z,23.12
2023-04-18T13:50:20.599Z,23.04
2023-04-18T13:51:19.572Z,22.93
2023-04-18T13:52:19.621Z,22.84
2023-04-18T13:53:20.678Z,22.91
2023-04-18T13:54:19.712Z,23.02
2023-04-18T13:55:20.773Z,23.05
2023-04-18T13:56:20.813Z,23.08
2023-04-18T13:57:20.868Z,23.10
2023-04-18T13:58:20.923Z,23.12
2023-04-18T13:59:20.929Z,23.11
2023-04-18T14:00:21.032Z,23.15
2023-04-18T14:01:20.066Z,23.15
2023-04-18T14:02:20.128Z,23.15
2023-04-18T14:03:20.232Z,23.12
2023-04-18T14:04:21.405Z,23.14
2023-04-18T14:05:20.156Z,23.14
2023-04-18T14:06:20.209Z,23.15
2023-04-18T14:07:20.202Z,23.12
2023-04-18T14:08:20.204Z,23.12
2023-04-18T14:09:21.249Z,23.14
2023-04-18T14:10:20.298Z,23.11
2023-04-18T14:11:20.316Z,23.10
2023-04-18T14:12:20.366Z,23.11
2023-04-18T14:13:20.392Z,23.11
2023-04-18T14:14:20.918Z,23.11
2023-04-18T14:15:21.490Z,23.12
2023-04-18T14:16:21.540Z,23.11
2023-04-18T14:17:20.605Z,23.11
2023-04-18T14:18:21.664Z,23.08
2023-04-18T14:19:20.643Z,23.08
2023-04-18T14:20:21.678Z,23.11
2023-04-18T14:21:20.762Z,23.08
2023-04-18T14:22:21.815Z,23.07
2023-04-18T14:23:20.817Z,23.10
2023-04-18T14:24:20.889Z,23.08
2023-04-18T14:25:20.917Z,23.07
2023-04-18T14:26:22.049Z,23.05
2023-04-18T14:27:22.010Z,23.08
2023-04-18T14:28:22.060Z,23.05
2023-04-18T14:29:21.121Z,23.10
2023-04-18T14:30:21.149Z,23.07
2023-04-18T14:31:21.261Z,23.05
2023-04-18T14:32:22.275Z,23.05
2023-04-18T14:33:21.586Z,23.02
2023-04-18T14:34:21.345Z,23.04
2023-04-18T14:35:21.405Z,23.05
2023-04-18T14:36:21.409Z,23.04
2023-04-18T14:37:22.504Z,23.01
2023-04-18T14:38:22.530Z,23.02
2023-04-18T14:39:21.557Z,23.02
2023-04-18T14:40:21.608Z,23.04
2023-04-18T14:41:21.637Z,23.01
2023-04-18T14:42:21.686Z,23.02
2023-04-18T14:43:22.730Z,23.02
2023-04-18T14:44:21.767Z,23.02
2023-04-18T14:45:21.839Z,23.01
2023-04-18T14:46:21.863Z,23.00
2023-04-18T14:47:24.260Z,23.00
2023-04-18T14:48:23.032Z,22.98
2023-04-18T14:49:22.058Z,22.98
2023-04-18T14:50:22.130Z,23.01
2023-04-18T14:51:23.220Z,23.00
2023-04-18T14:52:23.228Z,22.98
2023-04-18T14:53:22.243Z,22.98
2023-04-18T14:54:23.281Z,22.98
2023-04-18T14:55:22.307Z,23.00
2023-04-18T14:56:23.368Z,22.97
2023-04-18T14:57:22.423Z,22.98
2023-04-18T14:58:23.453Z,22.97
2023-04-18T14:59:22.473Z,22.95
2023-04-18T15:00:23.529Z,22.95
2023-04-18T15:01:23.604Z,22.95
2023-04-18T15:02:22.769Z,22.94
2023-04-18T15:03:23.751Z,22.95
2023-04-18T15:04:23.819Z,22.98
2023-04-18T15:05:22.736Z,22.94
2023-04-18T15:06:23.815Z,22.93
2023-04-18T15:07:23.843Z,22.95
2023-04-18T15:08:23.882Z,22.94
2023-04-18T15:09:22.922Z,22.94
2023-04-18T15:10:23.999Z,22.95
2023-04-18T15:11:23.015Z,22.94
2023-04-18T15:12:24.070Z,22.93
2023-04-18T15:13:23.094Z,22.91
2023-04-18T15:14:24.157Z,22.94
2023-04-18T15:15:24.202Z,22.90
2023-04-18T15:16:24.277Z,22.93
2023-04-18T15:17:23.307Z,22.91
2023-04-18T15:18:23.335Z,22.91
2023-04-18T15:19:23.375Z,22.93
2023-04-18T15:20:24.441Z,22.90
2023-04-18T15:21:24.468Z,22.90
2023-04-18T15:22:24.524Z,22.90
2023-04-18T15:23:24.582Z,22.90
2023-04-18T15:24:24.621Z,22.90
2023-04-18T15:25:24.701Z,22.89
2023-04-18T15:26:24.750Z,22.87
2023-04-18T15:27:23.786Z,22.89
2023-04-18T15:28:24.915Z,22.90
2023-04-18T15:29:23.909Z,22.86
